sensor_id;sensor_type;location;lat;lon;timestamp;P1;durP1;ratioP1;P2;durP2;ratioP2
12956;SDS011;6543;48.836;10.092;2022-09-17T00:01:16;6.60;;;2.10;;
12956;SDS011;6543;48.836;10.092;2022-09-17T00:03:47;2.47;;;1.90;;
12956;SDS011;6543;48.836;10.092;2022-09-17T00:06:16;2.43;;;2.23;;
12956;SDS011;6543;48.836;10.092;2022-09-17T00:08:43;2.43;;;2.10;;
12956;SDS011;6543;48.836;10.092;2022-09-17T00:11:11;4.07;;;2.40;;
12956;SDS011;6543;48.836;10.092;2022-09-17T00:13:41;3.77;;;2.60;;
12956;SDS011;6543;48.836;10.092;2022-09-17T00:16:09;3.30;;;2.43;;
12956;SDS011;6543;48.836;10.092;2022-09-17T00:18:36;4.50;;;2.93;;
12956;SDS011;6543;48.836;10.092;2022-09-17T00:21:05;2.60;;;2.37;;
12956;SDS011;6543;48.836;10.092;2022-09-17T00:23:33;7.13;;;2.57;;
12956;SDS011;6543;48.836;10.092;2022-09-17T00:26:03;2.70;;;2.50;;
12956;SDS011;6543;48.836;10.092;2022-09-17T00:28:30;5.40;;;2.60;;
12956;SDS011;6543;48.836;10.092;2022-09-17T00:30:58;3.23;;;2.53;;
12956;SDS011;6543;48.836;10.092;2022-09-17T00:33:25;3.33;;;2.50;;
12956;SDS011;6543;48.836;10.092;2022-09-17T00:35:56;2.47;;;2.27;;
12956;SDS011;6543;48.836;10.092;2022-09-17T00:38:24;3.73;;;2.33;;
12956;SDS011;6543;48.836;10.092;2022-09-17T00:40:50;3.37;;;2.90;;
12956;SDS011;6543;48.836;10.092;2022-09-17T00:43:30;2.67;;;2.37;;
12956;SDS011;6543;48.836;10.092;2022-09-17T00:46:00;3.27;;;2.63;;
12956;SDS011;6543;48.836;10.092;2022-09-17T00:48:28;1.93;;;1.83;;
12956;SDS011;6543;48.836;10.092;2022-09-17T00:50:55;4.30;;;2.30;;
12956;SDS011;6543;48.836;10.092;2022-09-17T00:53:25;2.80;;;2.43;;
12956;SDS011;6543;48.836;10.092;2022-09-17T00:55:54;5.47;;;2.60;;
12956;SDS011;6543;48.836;10.092;2022-09-17T00:58:26;3.13;;;2.73;;
12956;SDS011;6543;48.836;10.092;2022-09-17T01:00:56;2.67;;;2.47;;
12956;SDS011;6543;48.836;10.092;2022-09-17T01:03:25;3.50;;;2.73;;
12956;SDS011;6543;48.836;10.092;2022-09-17T01:05:53;2.87;;;2.67;;
12956;SDS011;6543;48.836;10.092;2022-09-17T01:08:27;3.60;;;2.90;;
12956;SDS011;6543;48.836;10.092;2022-09-17T01:11:14;4.13;;;2.97;;
12956;SDS011;6543;48.836;10.092;2022-09-17T01:13:55;3.33;;;3.10;;
12956;SDS011;6543;48.836;10.092;2022-09-17T01:16:30;6.83;;;2.53;;
12956;SDS011;6543;48.836;10.092;2022-09-17T01:19:11;2.67;;;2.47;;
12956;SDS011;6543;48.836;10.092;2022-09-17T01:21:53;5.57;;;3.00;;
12956;SDS011;6543;48.836;10.092;2022-09-17T01:27:27;3.80;;;2.57;;
12956;SDS011;6543;48.836;10.092;2022-09-17T01:33:34;2.60;;;2.23;;
12956;SDS011;6543;48.836;10.092;2022-09-17T01:36:12;3.00;;;2.47;;
12956;SDS011;6543;48.836;10.092;2022-09-17T01:38:50;3.77;;;2.43;;
12956;SDS011;6543;48.836;10.092;2022-09-17T01:41:26;3.17;;;2.33;;
12956;SDS011;6543;48.836;10.092;2022-09-17T01:44:00;7.20;;;2.70;;
12956;SDS011;6543;48.836;10.092;2022-09-17T01:46:31;4.97;;;2.07;;
12956;SDS011;6543;48.836;10.092;2022-09-17T01:49:04;1.67;;;1.57;;
12956;SDS011;6543;48.836;10.092;2022-09-17T01:51:34;3.40;;;2.07;;
12956;SDS011;6543;48.836;10.092;2022-09-17T01:54:04;4.33;;;2.50;;
12956;SDS011;6543;48.836;10.092;2022-09-17T01:56:35;2.57;;;2.37;;
12956;SDS011;6543;48.836;10.092;2022-09-17T01:59:06;2.83;;;2.43;;
12956;SDS011;6543;48.836;10.092;2022-09-17T02:01:37;2.70;;;2.13;;
12956;SDS011;6543;48.836;10.092;2022-09-17T02:04:09;3.90;;;2.30;;
12956;SDS011;6543;48.836;10.092;2022-09-17T02:06:40;2.47;;;2.23;;
12956;SDS011;6543;48.836;10.092;2022-09-17T02:09:13;3.10;;;2.13;;
12956;SDS011;6543;48.836;10.092;2022-09-17T02:11:44;5.10;;;2.30;;
12956;SDS011;6543;48.836;10.092;2022-09-17T02:14:15;6.37;;;2.17;;
12956;SDS011;6543;48.836;10.092;2022-09-17T02:16:48;2.30;;;2.10;;
12956;SDS011;6543;48.836;10.092;2022-09-17T02:19:21;2.10;;;1.90;;
12956;SDS011;6543;48.836;10.092;2022-09-17T02:21:52;2.37;;;2.10;;
12956;SDS011;6543;48.836;10.092;2022-09-17T02:24:24;2.70;;;1.87;;
12956;SDS011;6543;48.836;10.092;2022-09-17T02:26:57;2.50;;;1.93;;
12956;SDS011;6543;48.836;10.092;2022-09-17T02:29:28;3.00;;;1.83;;
12956;SDS011;6543;48.836;10.092;2022-09-17T02:31:58;2.50;;;1.90;;
12956;SDS011;6543;48.836;10.092;2022-09-17T02:34:27;1.60;;;1.50;;
12956;SDS011;6543;48.836;10.092;2022-09-17T02:36:54;1.90;;;1.70;;
12956;SDS011;6543;48.836;10.092;2022-09-17T02:39:22;2.07;;;1.90;;
12956;SDS011;6543;48.836;10.092;2022-09-17T02:41:51;4.97;;;2.10;;
12956;SDS011;6543;48.836;10.092;2022-09-17T02:44:31;6.27;;;1.80;;
12956;SDS011;6543;48.836;10.092;2022-09-17T02:50:17;1.50;;;1.40;;
12956;SDS011;6543;48.836;10.092;2022-09-17T02:52:59;1.77;;;1.67;;
12956;SDS011;6543;48.836;10.092;2022-09-17T02:55:39;3.73;;;1.70;;
12956;SDS011;6543;48.836;10.092;2022-09-17T02:58:11;3.63;;;1.40;;
12956;SDS011;6543;48.836;10.092;2022-09-17T03:00:44;4.23;;;1.80;;
12956;SDS011;6543;48.836;10.092;2022-09-17T03:03:13;2.57;;;1.53;;
12956;SDS011;6543;48.836;10.092;2022-09-17T03:05:47;1.33;;;1.23;;
12956;SDS011;6543;48.836;10.092;2022-09-17T03:08:15;5.23;;;1.50;;
12956;SDS011;6543;48.836;10.092;2022-09-17T03:10:44;1.30;;;1.20;;
12956;SDS011;6543;48.836;10.092;2022-09-17T03:13:12;2.57;;;1.50;;
12956;SDS011;6543;48.836;10.092;2022-09-17T03:15:40;5.80;;;1.93;;
12956;SDS011;6543;48.836;10.092;2022-09-17T03:18:07;4.57;;;2.27;;
12956;SDS011;6543;48.836;10.092;2022-09-17T03:20:33;1.83;;;1.53;;
12956;SDS011;6543;48.836;10.092;2022-09-17T03:23:02;2.57;;;1.27;;
12956;SDS011;6543;48.836;10.092;2022-09-17T03:25:29;2.57;;;1.27;;
12956;SDS011;6543;48.836;10.092;2022-09-17T03:27:55;4.83;;;1.40;;
12956;SDS011;6543;48.836;10.092;2022-09-17T03:30:22;3.37;;;1.60;;
12956;SDS011;6543;48.836;10.092;2022-09-17T03:32:49;1.67;;;1.33;;
12956;SDS011;6543;48.836;10.092;2022-09-17T03:35:16;4.17;;;1.23;;
12956;SDS011;6543;48.836;10.092;2022-09-17T03:37:43;3.53;;;2.00;;
12956;SDS011;6543;48.836;10.092;2022-09-17T03:40:12;3.30;;;1.40;;
12956;SDS011;6543;48.836;10.092;2022-09-17T03:42:39;5.30;;;1.40;;
12956;SDS011;6543;48.836;10.092;2022-09-17T03:45:06;2.03;;;1.00;;
12956;SDS011;6543;48.836;10.092;2022-09-17T03:47:33;4.70;;;1.40;;
12956;SDS011;6543;48.836;10.092;2022-09-17T03:50:01;3.43;;;1.60;;
12956;SDS011;6543;48.836;10.092;2022-09-17T03:52:28;7.30;;;1.50;;
12956;SDS011;6543;48.836;10.092;2022-09-17T03:54:55;5.47;;;1.10;;
12956;SDS011;6543;48.836;10.092;2022-09-17T03:57:23;5.03;;;1.30;;
12956;SDS011;6543;48.836;10.092;2022-09-17T03:59:50;3.47;;;0.90;;
12956;SDS011;6543;48.836;10.092;2022-09-17T04:02:17;8.47;;;1.37;;
12956;SDS011;6543;48.836;10.092;2022-09-17T04:04:43;10.00;;;1.30;;
12956;SDS011;6543;48.836;10.092;2022-09-17T04:07:10;8.77;;;1.53;;
12956;SDS011;6543;48.836;10.092;2022-09-17T04:09:37;6.03;;;1.40;;
12956;SDS011;6543;48.836;10.092;2022-09-17T04:12:04;4.67;;;1.30;;
12956;SDS011;6543;48.836;10.092;2022-09-17T04:14:32;1.63;;;1.10;;
12956;SDS011;6543;48.836;10.092;2022-09-17T04:16:59;2.77;;;1.30;;
12956;SDS011;6543;48.836;10.092;2022-09-17T04:19:26;6.50;;;1.40;;
12956;SDS011;6543;48.836;10.092;2022-09-17T04:21:53;11.90;;;1.73;;
12956;SDS011;6543;48.836;10.092;2022-09-17T04:24:19;8.13;;;1.33;;
12956;SDS011;6543;48.836;10.092;2022-09-17T04:26:46;6.23;;;1.60;;
12956;SDS011;6543;48.836;10.092;2022-09-17T04:29:13;4.33;;;1.37;;
12956;SDS011;6543;48.836;10.092;2022-09-17T04:31:41;12.87;;;1.83;;
12956;SDS011;6543;48.836;10.092;2022-09-17T04:34:08;7.23;;;1.30;;
12956;SDS011;6543;48.836;10.092;2022-09-17T04:36:35;10.23;;;2.10;;
12956;SDS011;6543;48.836;10.092;2022-09-17T04:39:02;8.87;;;2.00;;
12956;SDS011;6543;48.836;10.092;2022-09-17T04:41:29;8.63;;;1.90;;
12956;SDS011;6543;48.836;10.092;2022-09-17T04:43:55;5.83;;;1.93;;
12956;SDS011;6543;48.836;10.092;2022-09-17T04:46:22;11.17;;;2.80;;
12956;SDS011;6543;48.836;10.092;2022-09-17T04:48:50;3.00;;;1.03;;
12956;SDS011;6543;48.836;10.092;2022-09-17T04:51:17;5.30;;;1.40;;
12956;SDS011;6543;48.836;10.092;2022-09-17T04:53:44;6.67;;;1.80;;
12956;SDS011;6543;48.836;10.092;2022-09-17T04:56:11;3.17;;;1.30;;
12956;SDS011;6543;48.836;10.092;2022-09-17T04:58:38;5.77;;;1.63;;
12956;SDS011;6543;48.836;10.092;2022-09-17T05:01:05;8.43;;;1.50;;
12956;SDS011;6543;48.836;10.092;2022-09-17T05:03:31;4.77;;;1.60;;
12956;SDS011;6543;48.836;10.092;2022-09-17T05:06:00;8.37;;;1.33;;
12956;SDS011;6543;48.836;10.092;2022-09-17T05:08:26;7.93;;;1.40;;
12956;SDS011;6543;48.836;10.092;2022-09-17T05:10:53;6.23;;;2.07;;
12956;SDS011;6543;48.836;10.092;2022-09-17T05:13:20;9.67;;;1.47;;
12956;SDS011;6543;48.836;10.092;2022-09-17T05:15:47;6.27;;;1.40;;
12956;SDS011;6543;48.836;10.092;2022-09-17T05:18:14;5.70;;;1.57;;
12956;SDS011;6543;48.836;10.092;2022-09-17T05:20:41;4.07;;;1.17;;
12956;SDS011;6543;48.836;10.092;2022-09-17T05:23:09;5.07;;;1.60;;
12956;SDS011;6543;48.836;10.092;2022-09-17T05:25:36;5.27;;;1.43;;
12956;SDS011;6543;48.836;10.092;2022-09-17T05:28:03;6.53;;;1.40;;
12956;SDS011;6543;48.836;10.092;2022-09-17T05:30:30;5.53;;;1.50;;
12956;SDS011;6543;48.836;10.092;2022-09-17T05:32:58;8.40;;;1.77;;
12956;SDS011;6543;48.836;10.092;2022-09-17T05:35:26;8.70;;;1.87;;
12956;SDS011;6543;48.836;10.092;2022-09-17T05:37:55;12.63;;;1.47;;
12956;SDS011;6543;48.836;10.092;2022-09-17T05:40:24;6.13;;;1.97;;
12956;SDS011;6543;48.836;10.092;2022-09-17T05:42:51;6.03;;;1.47;;
12956;SDS011;6543;48.836;10.092;2022-09-17T05:45:22;4.97;;;1.20;;
12956;SDS011;6543;48.836;10.092;2022-09-17T05:47:52;9.73;;;2.17;;
12956;SDS011;6543;48.836;10.092;2022-09-17T05:50:20;7.67;;;1.73;;
12956;SDS011;6543;48.836;10.092;2022-09-17T05:52:47;4.63;;;1.40;;
12956;SDS011;6543;48.836;10.092;2022-09-17T05:55:14;9.20;;;1.70;;
12956;SDS011;6543;48.836;10.092;2022-09-17T05:57:42;8.23;;;1.63;;
12956;SDS011;6543;48.836;10.092;2022-09-17T06:00:09;5.57;;;1.30;;
12956;SDS011;6543;48.836;10.092;2022-09-17T06:02:37;4.03;;;1.67;;
12956;SDS011;6543;48.836;10.092;2022-09-17T06:05:04;4.20;;;1.40;;
12956;SDS011;6543;48.836;10.092;2022-09-17T06:07:33;2.23;;;1.00;;
12956;SDS011;6543;48.836;10.092;2022-09-17T06:10:00;4.63;;;1.67;;
12956;SDS011;6543;48.836;10.092;2022-09-17T06:12:27;7.10;;;1.60;;
12956;SDS011;6543;48.836;10.092;2022-09-17T06:14:55;6.30;;;1.50;;
12956;SDS011;6543;48.836;10.092;2022-09-17T06:17:22;8.43;;;1.60;;
12956;SDS011;6543;48.836;10.092;2022-09-17T06:19:49;4.80;;;1.70;;
12956;SDS011;6543;48.836;10.092;2022-09-17T06:22:16;5.87;;;1.40;;
12956;SDS011;6543;48.836;10.092;2022-09-17T06:24:44;5.57;;;1.50;;
12956;SDS011;6543;48.836;10.092;2022-09-17T06:27:11;1.47;;;0.63;;
12956;SDS011;6543;48.836;10.092;2022-09-17T06:29:38;6.47;;;1.50;;
12956;SDS011;6543;48.836;10.092;2022-09-17T06:32:07;6.07;;;1.50;;
12956;SDS011;6543;48.836;10.092;2022-09-17T06:34:37;8.60;;;2.07;;
12956;SDS011;6543;48.836;10.092;2022-09-17T06:37:04;9.47;;;1.53;;
12956;SDS011;6543;48.836;10.092;2022-09-17T06:39:31;4.30;;;1.60;;
12956;SDS011;6543;48.836;10.092;2022-09-17T06:41:58;8.93;;;1.70;;
12956;SDS011;6543;48.836;10.092;2022-09-17T06:44:25;5.97;;;1.57;;
12956;SDS011;6543;48.836;10.092;2022-09-17T06:46:52;4.77;;;2.13;;
12956;SDS011;6543;48.836;10.092;2022-09-17T06:49:20;4.23;;;1.30;;
12956;SDS011;6543;48.836;10.092;2022-09-17T06:51:47;5.30;;;1.20;;
12956;SDS011;6543;48.836;10.092;2022-09-17T06:54:14;12.13;;;1.73;;
12956;SDS011;6543;48.836;10.092;2022-09-17T06:56:40;8.23;;;2.13;;
12956;SDS011;6543;48.836;10.092;2022-09-17T06:59:07;3.80;;;1.20;;
12956;SDS011;6543;48.836;10.092;2022-09-17T07:01:34;7.60;;;1.90;;
12956;SDS011;6543;48.836;10.092;2022-09-17T07:04:01;7.73;;;1.87;;
12956;SDS011;6543;48.836;10.092;2022-09-17T07:06:30;8.20;;;1.80;;
12956;SDS011;6543;48.836;10.092;2022-09-17T07:08:56;7.47;;;2.00;;
12956;SDS011;6543;48.836;10.092;2022-09-17T07:11:23;6.00;;;2.10;;
12956;SDS011;6543;48.836;10.092;2022-09-17T07:13:50;7.37;;;2.17;;
12956;SDS011;6543;48.836;10.092;2022-09-17T07:16:17;5.77;;;1.70;;
12956;SDS011;6543;48.836;10.092;2022-09-17T07:18:44;4.23;;;2.07;;
12956;SDS011;6543;48.836;10.092;2022-09-17T07:21:11;7.80;;;2.07;;
12956;SDS011;6543;48.836;10.092;2022-09-17T07:23:39;5.43;;;2.10;;
12956;SDS011;6543;48.836;10.092;2022-09-17T07:26:07;5.83;;;1.80;;
12956;SDS011;6543;48.836;10.092;2022-09-17T07:28:39;6.20;;;1.90;;
12956;SDS011;6543;48.836;10.092;2022-09-17T07:31:07;6.73;;;1.90;;
12956;SDS011;6543;48.836;10.092;2022-09-17T07:33:34;4.63;;;2.10;;
12956;SDS011;6543;48.836;10.092;2022-09-17T07:36:03;5.10;;;2.10;;
12956;SDS011;6543;48.836;10.092;2022-09-17T07:38:32;3.77;;;2.33;;
12956;SDS011;6543;48.836;10.092;2022-09-17T07:41:01;5.47;;;2.33;;
12956;SDS011;6543;48.836;10.092;2022-09-17T07:43:30;5.83;;;2.30;;
12956;SDS011;6543;48.836;10.092;2022-09-17T07:45:58;4.43;;;2.70;;
12956;SDS011;6543;48.836;10.092;2022-09-17T07:48:27;5.97;;;2.33;;
12956;SDS011;6543;48.836;10.092;2022-09-17T07:50:54;7.73;;;2.60;;
12956;SDS011;6543;48.836;10.092;2022-09-17T07:53:21;4.97;;;2.50;;
12956;SDS011;6543;48.836;10.092;2022-09-17T07:55:51;2.57;;;2.33;;
12956;SDS011;6543;48.836;10.092;2022-09-17T07:58:20;5.20;;;2.03;;
12956;SDS011;6543;48.836;10.092;2022-09-17T08:00:47;7.83;;;2.10;;
12956;SDS011;6543;48.836;10.092;2022-09-17T08:03:15;12.10;;;2.73;;
12956;SDS011;6543;48.836;10.092;2022-09-17T08:05:42;3.53;;;1.47;;
12956;SDS011;6543;48.836;10.092;2022-09-17T08:08:09;6.57;;;2.23;;
12956;SDS011;6543;48.836;10.092;2022-09-17T08:10:36;4.30;;;2.10;;
12956;SDS011;6543;48.836;10.092;2022-09-17T08:13:02;5.83;;;1.70;;
12956;SDS011;6543;48.836;10.092;2022-09-17T08:15:31;3.60;;;1.77;;
12956;SDS011;6543;48.836;10.092;2022-09-17T08:17:58;1.67;;;1.30;;
12956;SDS011;6543;48.836;10.092;2022-09-17T08:20:24;4.23;;;1.93;;
12956;SDS011;6543;48.836;10.092;2022-09-17T08:22:56;4.77;;;1.80;;
12956;SDS011;6543;48.836;10.092;2022-09-17T08:25:24;3.23;;;1.40;;
12956;SDS011;6543;48.836;10.092;2022-09-17T08:27:52;1.40;;;1.30;;
12956;SDS011;6543;48.836;10.092;2022-09-17T08:30:19;3.13;;;1.30;;
12956;SDS011;6543;48.836;10.092;2022-09-17T08:32:48;4.73;;;1.67;;
12956;SDS011;6543;48.836;10.092;2022-09-17T08:35:15;1.93;;;1.40;;
12956;SDS011;6543;48.836;10.092;2022-09-17T08:37:42;3.77;;;1.33;;
12956;SDS011;6543;48.836;10.092;2022-09-17T08:40:11;2.33;;;1.30;;
12956;SDS011;6543;48.836;10.092;2022-09-17T08:42:48;1.60;;;1.13;;
12956;SDS011;6543;48.836;10.092;2022-09-17T08:45:21;2.13;;;1.47;;
12956;SDS011;6543;48.836;10.092;2022-09-17T08:47:51;2.53;;;1.10;;
12956;SDS011;6543;48.836;10.092;2022-09-17T08:50:28;3.63;;;1.27;;
12956;SDS011;6543;48.836;10.092;2022-09-17T08:53:03;3.03;;;1.00;;
12956;SDS011;6543;48.836;10.092;2022-09-17T08:55:50;2.20;;;1.00;;
12956;SDS011;6543;48.836;10.092;2022-09-17T08:58:26;0.90;;;0.90;;
12956;SDS011;6543;48.836;10.092;2022-09-17T09:01:10;2.17;;;1.20;;
12956;SDS011;6543;48.836;10.092;2022-09-17T09:03:51;3.33;;;1.83;;
12956;SDS011;6543;48.836;10.092;2022-09-17T09:06:45;2.87;;;1.40;;
12956;SDS011;6543;48.836;10.092;2022-09-17T09:09:15;4.40;;;1.80;;
12956;SDS011;6543;48.836;10.092;2022-09-17T09:11:43;2.00;;;1.40;;
12956;SDS011;6543;48.836;10.092;2022-09-17T09:14:15;3.50;;;1.40;;
12956;SDS011;6543;48.836;10.092;2022-09-17T09:16:46;4.03;;;1.87;;
12956;SDS011;6543;48.836;10.092;2022-09-17T09:19:20;2.07;;;1.30;;
12956;SDS011;6543;48.836;10.092;2022-09-17T09:24:39;6.07;;;2.30;;
12956;SDS011;6543;48.836;10.092;2022-09-17T09:27:14;6.40;;;2.30;;
12956;SDS011;6543;48.836;10.092;2022-09-17T09:29:45;5.93;;;3.00;;
12956;SDS011;6543;48.836;10.092;2022-09-17T09:32:23;9.20;;;3.17;;
12956;SDS011;6543;48.836;10.092;2022-09-17T09:35:16;9.17;;;3.43;;
12956;SDS011;6543;48.836;10.092;2022-09-17T09:37:47;8.60;;;3.13;;
12956;SDS011;6543;48.836;10.092;2022-09-17T09:40:26;8.73;;;3.00;;
12956;SDS011;6543;48.836;10.092;2022-09-17T09:42:59;6.07;;;3.43;;
12956;SDS011;6543;48.836;10.092;2022-09-17T09:45:34;9.93;;;4.23;;
12956;SDS011;6543;48.836;10.092;2022-09-17T09:48:12;18.00;;;4.23;;
12956;SDS011;6543;48.836;10.092;2022-09-17T09:50:53;10.50;;;3.63;;
12956;SDS011;6543;48.836;10.092;2022-09-17T09:53:35;9.77;;;3.60;;
12956;SDS011;6543;48.836;10.092;2022-09-17T09:56:16;11.20;;;3.47;;
12956;SDS011;6543;48.836;10.092;2022-09-17T09:58:58;5.27;;;2.20;;
12956;SDS011;6543;48.836;10.092;2022-09-17T10:01:26;6.07;;;2.33;;
12956;SDS011;6543;48.836;10.092;2022-09-17T10:03:55;8.10;;;2.10;;
12956;SDS011;6543;48.836;10.092;2022-09-17T10:06:27;2.77;;;1.83;;
12956;SDS011;6543;48.836;10.092;2022-09-17T10:09:08;7.80;;;2.37;;
12956;SDS011;6543;48.836;10.092;2022-09-17T10:11:37;7.07;;;2.17;;
12956;SDS011;6543;48.836;10.092;2022-09-17T10:14:14;4.80;;;1.43;;
12956;SDS011;6543;48.836;10.092;2022-09-17T10:16:48;5.93;;;1.93;;
12956;SDS011;6543;48.836;10.092;2022-09-17T10:19:17;8.07;;;2.13;;
12956;SDS011;6543;48.836;10.092;2022-09-17T10:21:50;4.13;;;1.57;;
12956;SDS011;6543;48.836;10.092;2022-09-17T10:24:21;9.93;;;1.80;;
12956;SDS011;6543;48.836;10.092;2022-09-17T10:26:49;6.00;;;2.10;;
12956;SDS011;6543;48.836;10.092;2022-09-17T10:29:18;7.20;;;2.27;;
12956;SDS011;6543;48.836;10.092;2022-09-17T10:31:46;6.63;;;2.53;;
12956;SDS011;6543;48.836;10.092;2022-09-17T10:34:18;4.00;;;1.80;;
12956;SDS011;6543;48.836;10.092;2022-09-17T10:36:47;5.07;;;1.93;;
12956;SDS011;6543;48.836;10.092;2022-09-17T10:39:22;8.10;;;1.97;;
12956;SDS011;6543;48.836;10.092;2022-09-17T10:41:56;3.83;;;1.90;;
12956;SDS011;6543;48.836;10.092;2022-09-17T10:44:24;4.03;;;1.47;;
12956;SDS011;6543;48.836;10.092;2022-09-17T10:46:52;5.80;;;2.50;;
12956;SDS011;6543;48.836;10.092;2022-09-17T10:49:25;8.77;;;1.77;;
12956;SDS011;6543;48.836;10.092;2022-09-17T10:52:02;8.60;;;1.90;;
12956;SDS011;6543;48.836;10.092;2022-09-17T10:54:42;11.50;;;2.47;;
12956;SDS011;6543;48.836;10.092;2022-09-17T10:57:36;4.97;;;1.83;;
12956;SDS011;6543;48.836;10.092;2022-09-17T11:00:27;4.70;;;2.00;;
12956;SDS011;6543;48.836;10.092;2022-09-17T11:03:17;7.63;;;2.60;;
12956;SDS011;6543;48.836;10.092;2022-09-17T11:09:14;9.77;;;2.33;;
12956;SDS011;6543;48.836;10.092;2022-09-17T11:11:56;5.43;;;1.87;;
12956;SDS011;6543;48.836;10.092;2022-09-17T11:14:38;8.17;;;2.43;;
12956;SDS011;6543;48.836;10.092;2022-09-17T11:17:21;7.70;;;2.37;;
12956;SDS011;6543;48.836;10.092;2022-09-17T11:20:17;5.33;;;2.27;;
12956;SDS011;6543;48.836;10.092;2022-09-17T11:22:54;4.47;;;2.10;;
12956;SDS011;6543;48.836;10.092;2022-09-17T11:25:32;7.10;;;2.07;;
12956;SDS011;6543;48.836;10.092;2022-09-17T11:28:12;7.00;;;3.03;;
12956;SDS011;6543;48.836;10.092;2022-09-17T11:30:57;7.47;;;1.40;;
12956;SDS011;6543;48.836;10.092;2022-09-17T11:33:39;6.43;;;1.60;;
12956;SDS011;6543;48.836;10.092;2022-09-17T11:36:18;5.73;;;1.93;;
12956;SDS011;6543;48.836;10.092;2022-09-17T11:38:49;7.20;;;1.80;;
12956;SDS011;6543;48.836;10.092;2022-09-17T11:41:19;7.20;;;1.60;;
12956;SDS011;6543;48.836;10.092;2022-09-17T11:43:52;6.87;;;1.77;;
12956;SDS011;6543;48.836;10.092;2022-09-17T11:46:33;6.80;;;1.47;;
12956;SDS011;6543;48.836;10.092;2022-09-17T11:49:08;8.50;;;1.50;;
12956;SDS011;6543;48.836;10.092;2022-09-17T11:51:41;6.93;;;1.80;;
12956;SDS011;6543;48.836;10.092;2022-09-17T11:54:15;10.87;;;1.80;;
12956;SDS011;6543;48.836;10.092;2022-09-17T11:56:48;3.83;;;1.70;;
12956;SDS011;6543;48.836;10.092;2022-09-17T11:59:21;9.93;;;2.50;;
12956;SDS011;6543;48.836;10.092;2022-09-17T12:01:55;3.53;;;1.20;;
12956;SDS011;6543;48.836;10.092;2022-09-17T12:04:33;8.13;;;2.97;;
12956;SDS011;6543;48.836;10.092;2022-09-17T12:07:09;5.60;;;1.83;;
12956;SDS011;6543;48.836;10.092;2022-09-17T12:09:42;4.53;;;1.33;;
12956;SDS011;6543;48.836;10.092;2022-09-17T12:12:15;5.93;;;1.60;;
12956;SDS011;6543;48.836;10.092;2022-09-17T12:14:48;4.07;;;1.70;;
12956;SDS011;6543;48.836;10.092;2022-09-17T12:17:20;4.30;;;1.57;;
12956;SDS011;6543;48.836;10.092;2022-09-17T12:19:50;5.03;;;1.53;;
12956;SDS011;6543;48.836;10.092;2022-09-17T12:22:22;4.70;;;1.20;;
12956;SDS011;6543;48.836;10.092;2022-09-17T12:24:52;5.57;;;1.10;;
12956;SDS011;6543;48.836;10.092;2022-09-17T12:27:23;3.33;;;0.93;;
12956;SDS011;6543;48.836;10.092;2022-09-17T12:30:03;2.70;;;0.80;;
12956;SDS011;6543;48.836;10.092;2022-09-17T12:32:40;5.10;;;1.00;;
12956;SDS011;6543;48.836;10.092;2022-09-17T12:35:18;3.90;;;0.80;;
12956;SDS011;6543;48.836;10.092;2022-09-17T12:38:04;6.20;;;1.50;;
12956;SDS011;6543;48.836;10.092;2022-09-17T12:40:41;1.83;;;1.10;;
12956;SDS011;6543;48.836;10.092;2022-09-17T12:43:18;4.23;;;1.03;;
12956;SDS011;6543;48.836;10.092;2022-09-17T12:46:08;5.73;;;1.07;;
12956;SDS011;6543;48.836;10.092;2022-09-17T12:48:53;2.97;;;0.80;;
12956;SDS011;6543;48.836;10.092;2022-09-17T12:51:42;3.23;;;0.60;;
12956;SDS011;6543;48.836;10.092;2022-09-17T12:54:36;1.53;;;1.00;;
12956;SDS011;6543;48.836;10.092;2022-09-17T12:57:35;2.30;;;0.93;;
12956;SDS011;6543;48.836;10.092;2022-09-17T13:00:09;3.47;;;1.23;;
12956;SDS011;6543;48.836;10.092;2022-09-17T13:02:39;4.17;;;2.53;;
12956;SDS011;6543;48.836;10.092;2022-09-17T13:08:12;1.10;;;0.57;;
12956;SDS011;6543;48.836;10.092;2022-09-17T13:11:05;3.00;;;0.80;;
12956;SDS011;6543;48.836;10.092;2022-09-17T13:13:46;3.20;;;1.10;;
12956;SDS011;6543;48.836;10.092;2022-09-17T13:16:18;4.07;;;0.97;;
12956;SDS011;6543;48.836;10.092;2022-09-17T13:18:53;2.93;;;0.80;;
12956;SDS011;6543;48.836;10.092;2022-09-17T13:21:24;1.30;;;0.60;;
12956;SDS011;6543;48.836;10.092;2022-09-17T13:23:57;2.17;;;0.67;;
12956;SDS011;6543;48.836;10.092;2022-09-17T13:26:31;2.23;;;1.00;;
12956;SDS011;6543;48.836;10.092;2022-09-17T13:29:01;0.67;;;0.60;;
12956;SDS011;6543;48.836;10.092;2022-09-17T13:31:46;1.57;;;1.00;;
12956;SDS011;6543;48.836;10.092;2022-09-17T13:34:29;1.73;;;0.90;;
12956;SDS011;6543;48.836;10.092;2022-09-17T13:36:57;1.90;;;1.17;;
12956;SDS011;6543;48.836;10.092;2022-09-17T13:39:35;1.33;;;0.80;;
12956;SDS011;6543;48.836;10.092;2022-09-17T13:42:06;1.23;;;0.80;;
12956;SDS011;6543;48.836;10.092;2022-09-17T13:44:38;2.60;;;0.73;;
12956;SDS011;6543;48.836;10.092;2022-09-17T13:47:12;3.03;;;0.80;;
12956;SDS011;6543;48.836;10.092;2022-09-17T13:49:44;1.63;;;0.63;;
12956;SDS011;6543;48.836;10.092;2022-09-17T13:52:22;1.07;;;0.70;;
12956;SDS011;6543;48.836;10.092;2022-09-17T13:54:56;3.60;;;0.97;;
12956;SDS011;6543;48.836;10.092;2022-09-17T13:57:23;1.60;;;0.67;;
12956;SDS011;6543;48.836;10.092;2022-09-17T13:59:53;0.13;;;0.13;;
12956;SDS011;6543;48.836;10.092;2022-09-17T14:02:32;2.20;;;0.90;;
12956;SDS011;6543;48.836;10.092;2022-09-17T14:10:57;0.67;;;0.50;;
12956;SDS011;6543;48.836;10.092;2022-09-17T14:13:27;1.20;;;0.37;;
12956;SDS011;6543;48.836;10.092;2022-09-17T14:21:56;0.70;;;0.50;;
12956;SDS011;6543;48.836;10.092;2022-09-17T14:24:26;1.60;;;1.10;;
12956;SDS011;6543;48.836;10.092;2022-09-17T14:27:09;0.80;;;0.60;;
12956;SDS011;6543;48.836;10.092;2022-09-17T14:32:42;1.67;;;1.47;;
12956;SDS011;6543;48.836;10.092;2022-09-17T14:35:18;1.50;;;0.83;;
12956;SDS011;6543;48.836;10.092;2022-09-17T14:37:59;1.30;;;0.70;;
12956;SDS011;6543;48.836;10.092;2022-09-17T14:40:28;1.63;;;0.53;;
12956;SDS011;6543;48.836;10.092;2022-09-17T14:42:58;1.70;;;0.70;;
12956;SDS011;6543;48.836;10.092;2022-09-17T14:45:28;2.70;;;0.60;;
12956;SDS011;6543;48.836;10.092;2022-09-17T14:48:16;4.00;;;0.90;;
12956;SDS011;6543;48.836;10.092;2022-09-17T14:50:44;1.20;;;0.50;;
12956;SDS011;6543;48.836;10.092;2022-09-17T14:53:15;3.63;;;0.77;;
12956;SDS011;6543;48.836;10.092;2022-09-17T14:55:44;4.00;;;0.53;;
12956;SDS011;6543;48.836;10.092;2022-09-17T14:58:26;4.77;;;1.33;;
12956;SDS011;6543;48.836;10.092;2022-09-17T15:00:56;1.53;;;1.17;;
12956;SDS011;6543;48.836;10.092;2022-09-17T15:03:24;3.83;;;1.00;;
12956;SDS011;6543;48.836;10.092;2022-09-17T15:05:51;1.33;;;0.57;;
12956;SDS011;6543;48.836;10.092;2022-09-17T15:08:19;1.80;;;0.70;;
12956;SDS011;6543;48.836;10.092;2022-09-17T15:10:48;0.83;;;0.57;;
12956;SDS011;6543;48.836;10.092;2022-09-17T15:13:18;2.00;;;0.90;;
12956;SDS011;6543;48.836;10.092;2022-09-17T15:15:52;4.07;;;1.20;;
12956;SDS011;6543;48.836;10.092;2022-09-17T15:18:24;0.87;;;0.60;;
12956;SDS011;6543;48.836;10.092;2022-09-17T15:21:04;2.73;;;0.90;;
12956;SDS011;6543;48.836;10.092;2022-09-17T15:23:43;2.70;;;0.73;;
12956;SDS011;6543;48.836;10.092;2022-09-17T15:26:11;1.63;;;0.73;;
12956;SDS011;6543;48.836;10.092;2022-09-17T15:28:41;0.73;;;0.63;;
12956;SDS011;6543;48.836;10.092;2022-09-17T15:31:12;2.23;;;0.70;;
12956;SDS011;6543;48.836;10.092;2022-09-17T15:33:42;1.17;;;1.00;;
12956;SDS011;6543;48.836;10.092;2022-09-17T15:36:14;3.07;;;0.77;;
12956;SDS011;6543;48.836;10.092;2022-09-17T15:38:49;1.90;;;0.83;;
12956;SDS011;6543;48.836;10.092;2022-09-17T15:41:22;1.60;;;0.90;;
12956;SDS011;6543;48.836;10.092;2022-09-17T15:44:04;1.47;;;0.70;;
12956;SDS011;6543;48.836;10.092;2022-09-17T15:46:43;4.37;;;0.90;;
12956;SDS011;6543;48.836;10.092;2022-09-17T15:55:00;3.67;;;1.30;;